createdAt,value
2018-02-23T00:00:44.309Z,14.83
2018-02-23T00:03:13.782Z,13.87
2018-02-23T00:05:43.232Z,14.60
2018-02-23T00:08:11.974Z,13.13
2018-02-23T00:10:41.069Z,13.77
2018-02-23T00:13:11.392Z,13.07
2018-02-23T00:15:41.410Z,12.47
2018-02-23T00:18:10.098Z,10.83
2018-02-23T00:20:39.704Z,13.50
2018-02-23T00:23:08.902Z,12.60
2018-02-23T00:25:37.997Z,13.70
2018-02-23T00:28:07.030Z,14.03
2018-02-23T00:30:36.599Z,13.40
2018-02-23T00:33:12.920Z,13.80
2018-02-23T00:35:42.471Z,12.90
2018-02-23T00:38:12.283Z,12.60
2018-02-23T00:40:42.003Z,11.90
2018-02-23T00:43:12.442Z,13.83
2018-02-23T00:45:41.930Z,12.80
2018-02-23T00:48:10.628Z,15.77
2018-02-23T00:50:40.689Z,12.13
2018-02-23T00:53:09.822Z,12.67
2018-02-23T00:55:38.629Z,13.13
2018-02-23T00:58:08.327Z,11.87
2018-02-23T01:00:37.833Z,12.73
2018-02-23T01:03:07.442Z,16.20
2018-02-23T01:05:36.949Z,18.70
2018-02-23T01:08:05.735Z,11.97
2018-02-23T01:10:35.754Z,12.40
2018-02-23T01:13:04.848Z,11.70
2018-02-23T01:15:34.561Z,13.67
2018-02-23T01:18:04.680Z,13.83
2018-02-23T01:20:34.387Z,11.70
2018-02-23T01:23:03.176Z,13.60
2018-02-23T01:25:33.719Z,13.33
2018-02-23T01:28:02.396Z,13.30
2018-02-23T01:30:31.899Z,12.40
2018-02-23T01:33:00.798Z,12.90
2018-02-23T01:35:30.235Z,15.30
2018-02-23T01:38:00.622Z,12.80
2018-02-23T01:40:29.724Z,11.67
2018-02-23T01:42:59.116Z,12.60
2018-02-23T01:45:28.622Z,13.07
2018-02-23T01:47:58.229Z,12.20
2018-02-23T01:50:27.464Z,14.60
2018-02-23T01:52:57.138Z,13.33
2018-02-23T01:55:26.746Z,13.57
2018-02-23T01:57:56.049Z,13.50
2018-02-23T02:00:24.938Z,12.97
2018-02-23T02:02:54.238Z,12.00
2018-02-23T02:05:22.924Z,13.10
2018-02-23T02:07:52.431Z,13.33
2018-02-23T02:10:21.936Z,12.50
2018-02-23T02:12:51.747Z,13.17
2018-02-23T02:15:21.368Z,14.70
2018-02-23T02:17:50.559Z,12.50
2018-02-23T02:20:20.169Z,11.60
2018-02-23T02:22:49.062Z,11.90
2018-02-23T02:25:18.251Z,10.90
2018-02-23T02:27:47.349Z,12.57
2018-02-23T02:30:16.956Z,12.37
2018-02-23T02:32:46.874Z,12.70
2018-02-23T02:35:16.891Z,11.03
2018-02-23T02:37:46.089Z,11.43
2018-02-23T02:40:15.595Z,12.63
2018-02-23T02:42:45.571Z,11.10
2018-02-23T02:45:14.192Z,13.77
2018-02-23T02:47:43.699Z,11.80
2018-02-23T02:50:14.031Z,13.13
2018-02-23T02:52:43.222Z,13.40
2018-02-23T02:55:12.727Z,14.13
2018-02-23T02:57:42.234Z,11.30
2018-02-23T03:00:11.739Z,13.53
2018-02-23T03:02:40.882Z,13.00
2018-02-23T03:05:10.132Z,12.77
2018-02-23T03:07:38.820Z,13.60
2018-02-23T03:10:07.507Z,13.13
2018-02-23T03:12:37.738Z,11.57
2018-02-23T03:15:06.361Z,13.73
2018-02-23T03:17:35.410Z,12.47
2018-02-23T03:20:04.198Z,10.40
2018-02-23T03:22:32.885Z,12.30
2018-02-23T03:25:01.978Z,14.43
2018-02-23T03:27:31.178Z,11.50
2018-02-23T03:30:00.888Z,12.63
2018-02-23T03:32:30.233Z,11.70
2018-02-23T03:34:59.079Z,11.80
2018-02-23T03:37:28.686Z,12.57
2018-02-23T03:39:57.475Z,13.10
2018-02-23T03:42:26.571Z,13.33
2018-02-23T03:44:55.709Z,13.80
2018-02-23T03:47:25.068Z,13.20
2018-02-23T03:49:55.397Z,14.00
2018-02-23T03:52:24.902Z,12.93
2018-02-23T03:54:53.585Z,13.07
2018-02-23T03:57:22.478Z,14.03
2018-02-23T03:59:51.775Z,13.60
2018-02-23T04:02:20.463Z,11.97
2018-02-23T04:04:50.274Z,13.50
2018-02-23T04:07:19.370Z,13.40
2018-02-23T04:09:48.674Z,14.60
2018-02-23T04:12:17.359Z,12.70
2018-02-23T04:14:46.261Z,12.00
2018-02-23T04:17:15.794Z,10.87
2018-02-23T04:19:44.834Z,13.37
2018-02-23T04:22:13.649Z,12.03
2018-02-23T04:24:43.144Z,12.17
2018-02-23T04:27:12.756Z,12.70
2018-02-23T04:29:42.872Z,13.53
2018-02-23T04:32:12.585Z,12.50
2018-02-23T04:34:41.271Z,11.77
2018-02-23T04:37:10.364Z,11.23
2018-02-23T04:39:39.262Z,11.23
2018-02-23T04:42:08.919Z,12.80
2018-02-23T04:44:38.266Z,12.83
2018-02-23T04:47:06.952Z,13.37
2018-02-23T04:49:36.459Z,11.50
2018-02-23T04:52:05.969Z,12.43
2018-02-23T04:54:34.960Z,14.37
2018-02-23T04:57:04.527Z,12.57
2018-02-23T04:59:34.071Z,11.50
2018-02-23T05:02:03.576Z,13.03
2018-02-23T05:04:33.498Z,12.77
2018-02-23T05:07:02.789Z,12.27
2018-02-23T05:09:31.989Z,12.07
2018-02-23T05:12:01.291Z,13.00
2018-02-23T05:14:29.975Z,10.67
2018-02-23T05:16:59.278Z,12.07
2018-02-23T05:19:28.575Z,10.33
2018-02-23T05:21:57.876Z,11.27
2018-02-23T05:24:27.075Z,10.20
2018-02-23T05:26:56.273Z,9.20
2018-02-23T05:29:26.597Z,9.90
2018-02-23T05:31:55.489Z,10.50
2018-02-23T05:34:25.003Z,10.47
2018-02-23T05:36:53.887Z,7.53
2018-02-23T05:39:22.984Z,8.80
2018-02-23T05:41:52.285Z,10.23
2018-02-23T05:44:21.790Z,7.83
2018-02-23T05:46:51.392Z,8.70
2018-02-23T05:49:20.900Z,9.20
2018-02-23T05:51:49.791Z,8.90
2018-02-23T05:54:18.582Z,8.03
2018-02-23T05:56:47.368Z,8.33
2018-02-23T05:59:16.466Z,8.20
2018-02-23T06:01:45.971Z,8.40
2018-02-23T06:04:14.919Z,8.20
2018-02-23T06:06:44.469Z,8.57
2018-02-23T06:09:13.673Z,9.83
2018-02-23T06:11:43.888Z,8.40
2018-02-23T06:14:13.196Z,8.67
2018-02-23T06:16:42.285Z,8.00
2018-02-23T06:19:12.201Z,10.77
2018-02-23T06:21:41.506Z,9.80
2018-02-23T06:24:11.006Z,7.93
2018-02-23T06:26:41.181Z,8.07
2018-02-23T06:29:10.733Z,8.03
2018-02-23T06:31:39.831Z,8.40
2018-02-23T06:34:09.850Z,9.70
2018-02-23T06:36:39.350Z,8.00
2018-02-23T06:39:08.858Z,8.90
2018-02-23T06:41:38.365Z,10.00
2018-02-23T06:44:07.867Z,8.87
2018-02-23T06:46:38.601Z,8.77
2018-02-23T06:49:07.907Z,9.60
2018-02-23T06:51:38.333Z,9.87
2018-02-23T06:54:08.040Z,12.00
2018-02-23T06:56:38.876Z,10.63
2018-02-23T06:59:08.484Z,11.50
2018-02-23T07:01:39.432Z,10.80
2018-02-23T07:04:08.826Z,11.97
2018-02-23T07:06:38.174Z,9.80
2018-02-23T07:09:08.043Z,10.73
2018-02-23T07:11:39.289Z,10.90
2018-02-23T07:14:07.976Z,11.90
2018-02-23T07:16:39.124Z,11.10
2018-02-23T07:19:07.816Z,10.27
2018-02-23T07:21:38.849Z,10.73
2018-02-23T07:24:07.946Z,12.03
2018-02-23T07:26:37.242Z,9.10
2018-02-23T07:29:06.348Z,10.50
2018-02-23T07:31:36.051Z,10.53
2018-02-23T07:34:06.375Z,10.87
2018-02-23T07:36:35.675Z,8.83
2018-02-23T07:39:06.006Z,8.70
2018-02-23T07:41:36.118Z,9.67
2018-02-23T07:44:05.218Z,8.13
2018-02-23T07:46:34.310Z,7.80
2018-02-23T07:49:04.634Z,7.73
2018-02-23T07:51:33.526Z,9.37
2018-02-23T07:54:03.442Z,7.70
2018-02-23T07:56:33.778Z,7.80
2018-02-23T07:59:03.679Z,10.03
2018-02-23T08:01:33.192Z,8.13
2018-02-23T08:04:02.690Z,7.80
2018-02-23T08:06:31.789Z,8.00
2018-02-23T08:09:01.909Z,8.77
2018-02-23T08:11:31.724Z,8.23
2018-02-23T08:14:01.428Z,8.10
2018-02-23T08:16:30.732Z,8.00
2018-02-23T08:19:00.546Z,7.33
2018-02-23T08:21:30.666Z,8.87
2018-02-23T08:24:00.783Z,8.53
2018-02-23T08:26:30.317Z,7.23
2018-02-23T08:28:59.792Z,8.50
2018-02-23T08:31:29.299Z,7.00
2018-02-23T08:33:59.398Z,6.93
2018-02-23T08:36:28.857Z,7.60
2018-02-23T08:38:59.045Z,7.13
2018-02-23T08:41:28.138Z,6.77
2018-02-23T08:43:57.233Z,7.70
2018-02-23T08:46:27.561Z,8.07
2018-02-23T08:48:57.165Z,7.80
2018-02-23T08:51:27.494Z,9.37
2018-02-23T08:53:56.800Z,7.27
2018-02-23T08:56:27.119Z,9.10
2018-02-23T08:58:56.723Z,8.33
2018-02-23T09:01:25.928Z,7.60
2018-02-23T09:03:55.533Z,7.80
2018-02-23T09:06:24.318Z,10.13
2018-02-23T09:08:53.666Z,7.63
2018-02-23T09:11:22.819Z,8.70
2018-02-23T09:13:51.503Z,7.53
2018-02-23T09:16:21.009Z,8.30
2018-02-23T09:18:50.841Z,9.77
2018-02-23T09:21:20.736Z,8.33
2018-02-23T09:23:49.424Z,7.30
2018-02-23T09:26:18.109Z,7.53
2018-02-23T09:28:47.616Z,8.77
2018-02-23T09:31:17.234Z,7.90
2018-02-23T09:33:53.140Z,8.80
2018-02-23T09:36:23.198Z,7.90
2018-02-23T09:38:53.529Z,8.60
2018-02-23T09:41:23.742Z,7.87
2018-02-23T09:43:52.430Z,7.77
2018-02-23T09:46:21.934Z,7.13
2018-02-23T09:48:51.441Z,8.67
2018-02-23T09:51:20.537Z,7.57
2018-02-23T09:53:50.664Z,6.90
2018-02-23T09:56:20.780Z,7.87
2018-02-23T09:58:50.077Z,8.47
2018-02-23T10:01:18.868Z,10.43
2018-02-23T10:03:48.369Z,7.50
2018-02-23T10:06:18.490Z,7.50
2018-02-23T10:08:48.302Z,8.50
2018-02-23T10:11:18.227Z,6.47
2018-02-23T10:13:48.346Z,9.40
2018-02-23T10:16:17.373Z,6.67
2018-02-23T10:18:46.732Z,8.60
2018-02-23T10:21:16.651Z,9.23
2018-02-23T10:23:46.312Z,7.77
2018-02-23T10:26:16.482Z,7.53
2018-02-23T10:28:45.169Z,7.70
2018-02-23T10:31:15.053Z,8.10
2018-02-23T10:33:44.689Z,7.00
2018-02-23T10:36:14.192Z,7.90
2018-02-23T10:38:43.298Z,7.10
2018-02-23T10:41:12.488Z,9.40
2018-02-23T10:43:43.234Z,8.03
2018-02-23T10:46:13.135Z,7.80
2018-02-23T10:48:44.483Z,7.80
2018-02-23T10:51:14.195Z,6.70
2018-02-23T10:53:43.582Z,8.07
2018-02-23T10:56:13.213Z,7.83
2018-02-23T10:58:43.738Z,7.60
2018-02-23T11:01:13.615Z,7.00
2018-02-23T11:03:43.775Z,7.00
2018-02-23T11:06:13.282Z,7.40
2018-02-23T11:08:43.807Z,5.70
2018-02-23T11:11:14.029Z,7.13
2018-02-23T11:13:44.454Z,6.53
2018-02-23T11:16:13.141Z,6.20
2018-02-23T11:18:42.862Z,7.03
2018-02-23T11:21:11.953Z,8.13
2018-02-23T11:23:41.452Z,6.80
2018-02-23T11:26:11.673Z,6.93
2018-02-23T11:28:41.486Z,9.53
2018-02-23T11:31:10.786Z,7.60
2018-02-23T11:33:39.815Z,7.60
2018-02-23T11:36:10.163Z,7.00
2018-02-23T11:38:39.711Z,6.33
2018-02-23T11:41:09.938Z,8.60
2018-02-23T11:43:38.620Z,8.17
2018-02-23T11:46:07.921Z,7.10
2018-02-23T11:48:38.141Z,7.20
2018-02-23T11:51:09.697Z,7.50
2018-02-23T11:53:39.816Z,8.60
2018-02-23T11:56:09.076Z,7.97
2018-02-23T11:58:38.724Z,9.97
2018-02-23T12:01:08.030Z,8.80
2018-02-23T12:03:38.248Z,7.80
2018-02-23T12:06:07.296Z,8.10
2018-02-23T12:08:36.858Z,7.03
2018-02-23T12:11:07.016Z,7.43
2018-02-23T12:13:37.397Z,9.20
2018-02-23T12:16:07.633Z,8.30
2018-02-23T12:18:37.440Z,8.43
2018-02-23T12:21:06.545Z,10.17
2018-02-23T12:23:36.954Z,8.53
2018-02-23T12:26:06.875Z,8.93
2018-02-23T12:28:36.374Z,9.53
2018-02-23T12:31:06.492Z,7.50
2018-02-23T12:33:36.002Z,8.23
2018-02-23T12:36:05.917Z,9.43
2018-02-23T12:38:34.608Z,8.50
2018-02-23T12:41:04.210Z,8.93
2018-02-23T12:43:34.188Z,8.40
2018-02-23T12:46:03.628Z,8.20
2018-02-23T12:48:33.342Z,10.13
2018-02-23T12:51:03.257Z,9.40
2018-02-23T12:53:33.168Z,9.20
2018-02-23T12:56:03.598Z,7.80
2018-02-23T12:58:33.774Z,8.00
2018-02-23T13:01:03.535Z,10.13
2018-02-23T13:03:32.380Z,9.63
2018-02-23T13:06:02.742Z,9.37
2018-02-23T13:08:31.545Z,10.33
2018-02-23T13:11:01.759Z,9.63
2018-02-23T13:13:32.084Z,9.63
2018-02-23T13:16:01.585Z,8.97
2018-02-23T13:18:31.704Z,8.00
2018-02-23T13:21:00.798Z,9.73
2018-02-23T13:23:31.125Z,8.13
2018-02-23T13:26:00.837Z,10.30
2018-02-23T13:28:35.868Z,8.70
2018-02-23T13:31:05.583Z,9.97
2018-02-23T13:33:35.908Z,8.60
2018-02-23T13:36:05.411Z,10.50
2018-02-23T13:38:34.899Z,8.23
2018-02-23T13:41:10.976Z,8.40
2018-02-23T13:43:39.951Z,9.20
2018-02-23T13:46:09.480Z,9.30
2018-02-23T13:48:39.189Z,8.20
2018-02-23T13:51:07.834Z,8.20
2018-02-23T13:53:42.851Z,9.77
2018-02-23T13:56:12.003Z,9.73
2018-02-23T13:58:42.938Z,8.63
2018-02-23T14:01:12.343Z,7.70
2018-02-23T14:03:41.955Z,7.90
2018-02-23T14:06:12.122Z,8.50
2018-02-23T14:08:42.291Z,7.50
2018-02-23T14:11:12.415Z,8.80
2018-02-23T14:13:42.533Z,7.60
2018-02-23T14:16:12.448Z,7.77
2018-02-23T14:18:41.959Z,8.27
2018-02-23T14:21:11.460Z,7.27
2018-02-23T14:23:41.688Z,7.00
2018-02-23T14:26:11.620Z,8.27
2018-02-23T14:28:41.714Z,9.33
2018-02-23T14:31:10.860Z,8.30
2018-02-23T14:33:40.910Z,8.23
2018-02-23T14:36:10.576Z,7.70
2018-02-23T14:38:40.508Z,6.60
2018-02-23T14:41:10.970Z,8.20
2018-02-23T14:43:40.605Z,10.20
2018-02-23T14:46:11.003Z,7.13
2018-02-23T14:48:52.385Z,7.70
2018-02-23T14:51:21.384Z,8.40
2018-02-23T14:53:50.938Z,7.10
2018-02-23T14:56:20.509Z,7.47
2018-02-23T14:58:50.226Z,8.40
2018-02-23T15:01:20.235Z,6.90
2018-02-23T15:03:50.227Z,8.50
2018-02-23T15:06:20.155Z,6.93
2018-02-23T15:08:49.539Z,8.03
2018-02-23T15:11:19.369Z,8.70
2018-02-23T15:13:48.973Z,8.57
2018-02-23T15:16:18.581Z,7.30
2018-02-23T15:18:47.909Z,8.77
2018-02-23T15:21:17.861Z,7.70
2018-02-23T15:23:48.256Z,7.85
2018-02-23T15:26:18.173Z,5.93
2018-02-23T15:28:47.705Z,8.87
2018-02-23T15:31:30.069Z,7.70
2018-02-23T15:34:00.555Z,6.63
2018-02-23T15:36:30.007Z,8.30
2018-02-23T15:39:00.316Z,8.10
2018-02-23T15:41:30.838Z,6.73
2018-02-23T15:44:00.950Z,9.10
2018-02-23T15:46:30.798Z,8.67
2018-02-23T15:49:07.172Z,8.23
2018-02-23T15:51:42.907Z,8.47
2018-02-23T15:54:11.973Z,10.00
2018-02-23T15:56:41.788Z,8.23
2018-02-23T15:59:11.939Z,9.47
2018-02-23T16:01:41.750Z,8.83
2018-02-23T16:04:11.060Z,9.73
2018-02-23T16:06:41.809Z,8.50
2018-02-23T16:09:11.823Z,9.00
2018-02-23T16:11:41.872Z,9.30
2018-02-23T16:14:12.021Z,7.53
2018-02-23T16:16:42.563Z,9.17
2018-02-23T16:19:12.561Z,12.10
2018-02-23T16:21:41.441Z,7.73
2018-02-23T16:24:11.702Z,8.27
2018-02-23T16:26:41.173Z,8.90
2018-02-23T16:29:13.301Z,6.80
2018-02-23T16:31:43.092Z,10.47
2018-02-23T16:34:13.631Z,8.37
2018-02-23T16:36:43.878Z,9.23
2018-02-23T16:39:14.366Z,9.77
2018-02-23T16:41:44.839Z,7.60
2018-02-23T16:44:14.929Z,7.40
2018-02-23T16:46:44.980Z,8.70
2018-02-23T16:51:44.512Z,8.30
2018-02-23T16:54:13.956Z,8.00
2018-02-23T16:56:44.075Z,8.97
2018-02-23T16:59:13.173Z,8.63
2018-02-23T17:01:43.395Z,6.90
2018-02-23T17:04:12.903Z,8.23
2018-02-23T17:06:43.019Z,7.20
2018-02-23T17:09:13.035Z,8.63
2018-02-23T17:11:42.547Z,6.93
2018-02-23T17:14:12.776Z,6.70
2018-02-23T17:16:41.881Z,8.47
2018-02-23T17:19:12.193Z,8.57
2018-02-23T17:21:42.306Z,9.17
2018-02-23T17:24:11.501Z,9.00
2018-02-23T17:26:40.605Z,8.70
2018-02-23T17:29:09.697Z,8.10
2018-02-23T17:31:38.790Z,9.57
2018-02-23T17:34:08.298Z,8.80
2018-02-23T17:36:38.527Z,9.20
2018-02-23T17:39:08.033Z,7.23
2018-02-23T17:41:37.337Z,6.93
2018-02-23T17:44:07.350Z,8.33
2018-02-23T17:46:37.675Z,6.97
2018-02-23T17:49:07.582Z,8.00
2018-02-23T17:51:37.039Z,8.00
2018-02-23T17:54:06.644Z,8.50
2018-02-23T17:56:36.508Z,9.20
2018-02-23T17:59:05.759Z,8.80
2018-02-23T18:01:35.519Z,9.90
2018-02-23T18:04:04.819Z,9.27
2018-02-23T18:06:34.340Z,8.77
2018-02-23T18:09:03.625Z,8.30
2018-02-23T18:11:33.336Z,8.13
2018-02-23T18:14:03.703Z,11.83
2018-02-23T18:16:33.902Z,8.00
2018-02-23T18:19:03.385Z,7.87
2018-02-23T18:21:33.712Z,7.37
2018-02-23T18:24:04.212Z,7.93
2018-02-23T18:26:33.451Z,8.37
2018-02-23T18:29:03.159Z,8.00
2018-02-23T18:31:33.497Z,8.27
2018-02-23T18:34:03.800Z,8.83
2018-02-23T18:36:34.124Z,9.27
2018-02-23T18:39:03.838Z,10.97
2018-02-23T18:41:33.954Z,8.83
2018-02-23T18:44:04.426Z,8.47
2018-02-23T18:46:33.991Z,8.57
2018-02-23T18:49:04.471Z,8.23
2018-02-23T18:51:34.130Z,7.63
2018-02-23T18:54:04.044Z,8.60
2018-02-23T18:56:34.180Z,9.30
2018-02-23T18:59:04.356Z,9.38
2018-02-23T19:01:34.557Z,7.47
2018-02-23T19:04:04.836Z,10.03
2018-02-23T19:06:35.150Z,8.57
2018-02-23T19:09:04.663Z,8.80
2018-02-23T19:11:34.377Z,8.83
2018-02-23T19:14:04.498Z,8.63
2018-02-23T19:16:34.605Z,8.97
2018-02-23T19:19:04.313Z,11.30
2018-02-23T19:21:34.765Z,8.63
2018-02-23T19:24:04.861Z,8.70
2018-02-23T19:26:34.776Z,8.70
2018-02-23T19:29:04.355Z,7.17
2018-02-23T19:31:33.997Z,7.87
2018-02-23T19:34:04.573Z,9.33
2018-02-23T19:36:33.855Z,8.20
2018-02-23T19:39:03.722Z,8.43
2018-02-23T19:41:34.116Z,8.90
2018-02-23T19:44:03.882Z,8.40
2018-02-23T19:46:33.539Z,8.60
2018-02-23T19:49:03.300Z,7.23
2018-02-23T19:51:33.163Z,7.90
2018-02-23T19:54:02.918Z,7.37
2018-02-23T19:56:33.243Z,7.60
2018-02-23T19:59:02.750Z,8.47
2018-02-23T20:01:32.257Z,9.90
2018-02-23T20:04:01.146Z,9.07
2018-02-23T20:06:30.652Z,9.97
2018-02-23T20:09:00.105Z,8.27
2018-02-23T20:11:29.049Z,8.93
2018-02-23T20:13:58.552Z,8.73
2018-02-23T20:16:28.057Z,10.20
2018-02-23T20:18:57.567Z,10.00
2018-02-23T20:21:27.684Z,12.60
2018-02-23T20:23:56.954Z,8.73
2018-02-23T20:26:26.078Z,9.90
2018-02-23T20:28:55.584Z,9.10
2018-02-23T20:31:25.096Z,11.10
2018-02-23T20:33:55.116Z,12.77
2018-02-23T20:36:23.999Z,11.70
2018-02-23T20:38:52.995Z,12.10
2018-02-23T20:41:21.940Z,10.70
2018-02-23T20:43:52.834Z,10.07
2018-02-23T20:46:21.716Z,10.63
2018-02-23T20:48:52.961Z,11.23
2018-02-23T20:51:22.891Z,9.03
2018-02-23T20:53:53.781Z,9.60
2018-02-23T20:56:23.056Z,9.50
2018-02-23T20:58:52.092Z,10.50
2018-02-23T21:01:22.534Z,12.67
2018-02-23T21:03:53.068Z,9.20
2018-02-23T21:06:22.167Z,11.70
2018-02-23T21:08:52.658Z,10.00
2018-02-23T21:11:23.022Z,10.40
2018-02-23T21:13:53.351Z,10.13
2018-02-23T21:16:23.061Z,12.40
2018-02-23T21:18:53.372Z,9.80
2018-02-23T21:21:22.677Z,11.03
2018-02-23T21:23:53.203Z,11.83
2018-02-23T21:26:22.709Z,10.40
2018-02-23T21:28:53.863Z,17.87
2018-02-23T21:31:23.567Z,12.00
2018-02-23T21:33:52.877Z,11.40
2018-02-23T21:36:22.368Z,11.20
2018-02-23T21:38:51.266Z,10.20
2018-02-23T21:41:20.465Z,10.80
2018-02-23T21:43:50.171Z,11.30
2018-02-23T21:46:20.299Z,11.43
2018-02-23T21:48:49.428Z,10.90
2018-02-23T21:51:19.116Z,11.30
2018-02-23T21:53:48.420Z,11.50
2018-02-23T21:56:17.497Z,9.17
2018-02-23T21:58:47.311Z,9.37
2018-02-23T22:01:16.195Z,10.20
2018-02-23T22:03:44.990Z,12.80
2018-02-23T22:06:14.912Z,10.27
2018-02-23T22:08:44.408Z,11.40
2018-02-23T22:11:14.934Z,10.37
2018-02-23T22:13:44.598Z,11.10
2018-02-23T22:16:14.155Z,9.70
2018-02-23T22:18:43.631Z,7.90
2018-02-23T22:21:13.367Z,9.40
2018-02-23T22:23:42.835Z,7.97
2018-02-23T22:26:13.009Z,7.20
2018-02-23T22:28:42.301Z,8.43
2018-02-23T22:31:12.423Z,7.27
2018-02-23T22:33:41.506Z,7.70
2018-02-23T22:36:10.604Z,6.60
2018-02-23T22:38:40.925Z,7.97
2018-02-23T22:41:09.617Z,7.30
2018-02-23T22:43:38.503Z,8.33
2018-02-23T22:46:08.179Z,9.17
2018-02-23T22:48:37.107Z,9.00
2018-02-23T22:51:06.208Z,8.87
2018-02-23T22:53:35.706Z,7.70
2018-02-23T22:56:05.384Z,7.63
2018-02-23T22:58:35.032Z,7.60
2018-02-23T23:01:03.928Z,7.80
2018-02-23T23:03:34.033Z,7.10
2018-02-23T23:06:03.865Z,8.00
2018-02-23T23:08:33.461Z,8.77
2018-02-23T23:11:03.785Z,7.10
2018-02-23T23:13:33.590Z,7.33
2018-02-23T23:16:02.793Z,6.77
2018-02-23T23:18:31.704Z,7.73
2018-02-23T23:21:01.597Z,8.13
2018-02-23T23:23:31.306Z,6.90
2018-02-23T23:26:00.616Z,9.23
2018-02-23T23:28:29.714Z,7.53
2018-02-23T23:30:59.008Z,9.07
2018-02-23T23:33:29.150Z,7.97
2018-02-23T23:35:58.440Z,8.57
2018-02-23T23:38:28.136Z,9.33
2018-02-23T23:40:57.233Z,7.03
2018-02-23T23:43:26.123Z,8.70
2018-02-23T23:45:57.062Z,7.18
2018-02-23T23:48:26.774Z,7.80
2018-02-23T23:50:56.285Z,11.05
2018-02-23T23:53:24.970Z,7.70
2018-02-23T23:55:54.264Z,8.37
2018-02-23T23:58:23.460Z,8.30
